Time;durP1;ratioP1;P1;durP2;ratioP2;P2;SDS_P1;SDS_P2;PMS_P1;PMS_P2;Temp;Humidity;BMP_temperature;BMP_pressure;BME280_temperature;BME280_humidity;BME280_pressure;Samples;Min_cycle;Max_cycle;Signal;HPM_P1;HPM_P2
2021/09/20 00:01:39;;;;;;;6.70;6.20;;;;;;;11.15;100.00;98057.19;4998176;28;20433;-69
2021/09/20 00:04:07;;;;;;;7.53;6.83;;;;;;;11.06;100.00;98057.34;4985098;28;20212;-68
2021/09/20 00:06:35;;;;;;;7.60;7.00;;;;;;;11.09;100.00;98049.06;4971063;28;20205;-69
2021/09/20 00:09:04;;;;;;;7.63;6.90;;;;;;;11.11;100.00;98049.72;5000484;28;20236;-69
2021/09/20 00:11:32;;;;;;;7.23;6.60;;;;;;;11.14;100.00;98058.19;4996462;28;20740;-69
2021/09/20 00:14:00;;;;;;;7.70;7.10;;;;;;;11.11;100.00;98062.97;5001384;28;20307;-68
2021/09/20 00:16:29;;;;;;;7.93;7.13;;;;;;;11.23;100.00;98060.81;4997105;28;20217;-68
2021/09/20 00:18:57;;;;;;;7.17;6.57;;;;;;;11.26;100.00;98065.78;4987114;28;20372;-68
2021/09/20 00:21:26;;;;;;;6.90;6.33;;;;;;;11.14;100.00;98068.78;4965374;28;20399;-69
2021/09/20 00:23:54;;;;;;;7.13;6.43;;;;;;;11.07;100.00;98070.44;4997770;28;20213;-67
2021/09/20 00:26:22;;;;;;;7.67;7.07;;;;;;;11.07;100.00;98075.75;5009519;28;20216;-69
2021/09/20 00:28:50;;;;;;;7.20;6.60;;;;;;;11.00;100.00;98077.41;4998272;28;20779;-68
2021/09/20 00:31:18;;;;;;;6.90;6.40;;;;;;;10.98;100.00;98077.56;5005251;28;20200;-69
2021/09/20 00:33:47;;;;;;;7.43;6.80;;;;;;;11.05;100.00;98075.09;4997954;28;20213;-67
2021/09/20 00:36:15;;;;;;;6.17;5.67;;;;;;;10.95;100.00;98066.44;4956247;28;20897;-70
2021/09/20 00:38:43;;;;;;;7.10;6.40;;;;;;;10.94;100.00;98076.25;4997442;28;20229;-68
2021/09/20 00:41:12;;;;;;;7.77;6.93;;;;;;;10.87;100.00;98072.59;5001595;28;20209;-68
2021/09/20 00:43:39;;;;;;;7.30;6.70;;;;;;;11.03;100.00;98077.09;4998558;28;20216;-68
2021/09/20 00:46:08;;;;;;;6.60;6.00;;;;;;;11.05;100.00;98082.19;4994638;28;20202;-69
2021/09/20 00:48:36;;;;;;;7.63;7.03;;;;;;;11.03;100.00;98078.88;5005785;28;20235;-69
2021/09/20 00:51:06;;;;;;;7.13;6.53;;;;;;;10.91;100.00;98073.91;4950892;28;21557;-69
2021/09/20 00:53:34;;;;;;;6.10;5.70;;;;;;;10.85;100.00;98072.75;4994536;28;20207;-69
2021/09/20 00:56:02;;;;;;;7.10;6.50;;;;;;;10.78;100.00;98068.25;4999662;28;20364;-69
2021/09/20 00:58:30;;;;;;;7.23;6.63;;;;;;;10.79;100.00;98069.91;5007184;28;20225;-69
2021/09/20 01:01:00;;;;;;;6.80;6.20;;;;;;;11.00;100.00;98077.41;4986229;28;20451;-68
2021/09/20 01:03:28;;;;;;;7.50;6.90;;;;;;;10.91;100.00;98081.88;4999717;28;20232;-68
2021/09/20 01:05:58;;;;;;;7.27;6.63;;;;;;;10.76;100.00;98081.69;4958271;28;20209;-68
2021/09/20 01:08:28;;;;;;;6.90;6.30;;;;;;;10.79;100.00;98075.19;4996029;28;21045;-69
2021/09/20 01:10:56;;;;;;;6.90;6.30;;;;;;;10.71;100.00;98082.16;4996969;28;20404;-68
2021/09/20 01:13:24;;;;;;;7.53;6.83;;;;;;;10.74;100.00;98085.47;5008363;28;20204;-69
2021/09/20 01:15:53;;;;;;;7.37;6.77;;;;;;;10.71;100.00;98082.16;4996504;28;20578;-68
2021/09/20 01:18:21;;;;;;;7.53;6.90;;;;;;;10.86;100.00;98078.88;5006152;28;20217;-69
2021/09/20 01:20:50;;;;;;;6.80;6.27;;;;;;;10.76;100.00;98086.97;4968162;28;20221;-68
2021/09/20 01:23:20;;;;;;;7.17;6.57;;;;;;;10.78;100.00;98089.44;4993208;28;20637;-69
2021/09/20 01:25:48;;;;;;;7.37;6.80;;;;;;;10.66;100.00;98087.13;4998103;28;20220;-68
2021/09/20 01:28:16;;;;;;;7.40;6.80;;;;;;;10.67;100.00;98086.13;4996541;28;20298;-68
2021/09/20 01:30:44;;;;;;;7.57;6.83;;;;;;;10.58;100.00;98084.47;5002311;28;20205;-68
2021/09/20 01:33:12;;;;;;;6.70;6.20;;;;;;;10.58;100.00;98089.75;4997635;28;20219;-69
2021/09/20 01:35:40;;;;;;;7.57;6.97;;;;;;;10.67;100.00;98088.78;4996781;28;20267;-67
2021/09/20 01:38:08;;;;;;;7.97;7.27;;;;;;;10.77;100.00;98079.84;4954255;28;20745;-69
2021/09/20 01:40:38;;;;;;;7.67;7.07;;;;;;;10.64;100.00;98080.34;4996499;28;20208;-69
2021/09/20 01:43:05;;;;;;;7.43;6.87;;;;;;;10.69;100.00;98076.19;4995832;28;20235;-70
2021/09/20 01:45:33;;;;;;;7.43;6.83;;;;;;;10.78;100.00;98081.50;4998612;28;20205;-68
2021/09/20 01:48:01;;;;;;;7.67;7.07;;;;;;;10.68;100.00;98076.38;4998700;28;20675;-69
2021/09/20 01:50:29;;;;;;;7.47;6.87;;;;;;;10.68;100.00;98071.88;5001948;28;20212;-68
2021/09/20 01:52:57;;;;;;;8.43;7.57;;;;;;;10.70;100.00;98077.03;4964470;28;20212;-68
2021/09/20 01:55:26;;;;;;;7.40;6.70;;;;;;;10.80;100.00;98072.41;5000465;28;20215;-69
2021/09/20 01:57:55;;;;;;;7.67;6.93;;;;;;;10.67;100.00;98072.88;5004162;28;20237;-68
2021/09/20 02:00:23;;;;;;;7.27;6.70;;;;;;;10.64;100.00;98078.50;4962100;28;20906;-70
2021/09/20 02:02:51;;;;;;;7.90;7.20;;;;;;;10.56;100.00;98073.19;4997567;28;20301;-69
2021/09/20 02:05:19;;;;;;;7.47;6.87;;;;;;;10.51;100.00;98080.81;4994502;28;20240;-68
2021/09/20 02:07:47;;;;;;;8.47;7.77;;;;;;;10.56;100.00;98076.66;4997343;28;20212;-69
2021/09/20 02:10:16;;;;;;;8.07;7.47;;;;;;;10.48;100.00;98081.94;4994675;28;20705;-68
2021/09/20 02:12:45;;;;;;;7.50;6.80;;;;;;;10.46;100.00;98080.47;4987655;28;20208;-69
2021/09/20 02:15:14;;;;;;;7.53;6.93;;;;;;;10.66;100.00;98079.16;4966172;28;20767;-68
2021/09/20 02:17:42;;;;;;;7.33;6.73;;;;;;;10.50;100.00;98069.34;4998954;28;20204;-69
2021/09/20 02:20:11;;;;;;;8.43;7.63;;;;;;;10.62;100.00;98074.38;4997137;28;20208;-68
2021/09/20 02:22:39;;;;;;;8.33;7.53;;;;;;;10.51;100.00;98076.31;4999979;28;20206;-69
2021/09/20 02:25:10;;;;;;;8.20;7.47;;;;;;;10.56;100.00;98078.50;4999396;28;20205;-68
2021/09/20 02:27:38;;;;;;;7.33;6.73;;;;;;;10.47;100.00;98077.63;4984588;28;20344;-70
2021/09/20 02:30:08;;;;;;;8.87;7.07;;;;;;;10.64;100.00;98080.34;4988100;28;20236;-67
2021/09/20 02:32:38;;;;;;;8.63;7.83;;;;;;;10.52;100.00;98085.09;4982731;28;20641;-69
2021/09/20 02:35:07;;;;;;;7.97;7.37;;;;;;;10.68;100.00;98082.47;4992436;28;20211;-68
2021/09/20 02:37:36;;;;;;;7.80;7.10;;;;;;;10.52;100.00;98085.91;4995364;28;20339;-69
2021/09/20 02:40:06;;;;;;;7.27;6.67;;;;;;;10.52;100.00;98088.56;4992567;28;20292;-68
2021/09/20 02:42:34;;;;;;;7.17;6.57;;;;;;;10.57;100.00;98082.81;4979010;28;20209;-67
2021/09/20 02:45:03;;;;;;;8.07;7.47;;;;;;;10.47;100.00;98088.22;4991232;28;20331;-69
2021/09/20 02:47:31;;;;;;;7.63;7.03;;;;;;;10.53;100.00;98090.22;4947831;28;20220;-69
2021/09/20 02:50:00;;;;;;;7.87;7.20;;;;;;;10.55;100.00;98090.09;4997176;28;20689;-68
2021/09/20 02:52:28;;;;;;;7.77;7.07;;;;;;;10.56;100.00;98086.44;5007843;28;20219;-67
2021/09/20 02:54:56;;;;;;;7.97;7.13;;;;;;;10.40;100.00;98093.34;4992653;28;20259;-67
2021/09/20 02:57:24;;;;;;;8.10;7.10;;;;;;;10.39;100.00;98091.63;4996587;28;20212;-68
2021/09/20 02:59:52;;;;;;;7.83;7.20;;;;;;;10.40;100.00;98087.22;4989174;28;20232;-68
2021/09/20 03:02:20;;;;;;;9.00;8.20;;;;;;;10.32;100.00;98087.97;4964685;28;20225;-69
2021/09/20 03:04:48;;;;;;;7.70;7.00;;;;;;;10.32;100.00;98095.94;4994215;28;20678;-68
2021/09/20 03:07:18;;;;;;;7.77;7.07;;;;;;;10.33;100.00;98094.13;4998759;28;20215;-70
2021/09/20 03:09:46;;;;;;;7.90;7.20;;;;;;;10.35;100.00;98085.00;5000679;28;20236;-69
2021/09/20 03:12:14;;;;;;;8.20;7.50;;;;;;;10.35;100.00;98098.25;5002222;28;20357;-69
2021/09/20 03:14:41;;;;;;;7.67;7.07;;;;;;;10.28;100.00;98089.28;4990887;28;20665;-69
2021/09/20 03:17:09;;;;;;;8.27;7.57;;;;;;;10.29;100.00;98096.25;4962555;28;20521;-70
2021/09/20 03:19:37;;;;;;;7.93;7.23;;;;;;;10.37;100.00;98090.97;4994972;28;20720;-68
2021/09/20 03:22:05;;;;;;;7.90;7.23;;;;;;;10.42;100.00;98093.19;4994373;28;20213;-68
2021/09/20 03:24:35;;;;;;;7.47;6.87;;;;;;;10.42;100.00;98091.38;4995646;28;20209;-69
2021/09/20 03:27:03;;;;;;;7.33;6.70;;;;;;;10.37;100.00;98095.47;4993248;28;20200;-68
2021/09/20 03:29:31;;;;;;;8.13;7.33;;;;;;;10.28;100.00;98097.25;4990006;28;20224;-69
2021/09/20 03:31:59;;;;;;;7.73;7.03;;;;;;;10.26;100.00;98093.91;4972645;28;20220;-68
2021/09/20 03:34:27;;;;;;;8.03;7.43;;;;;;;10.24;100.00;98090.59;4992499;28;20212;-69
2021/09/20 03:36:55;;;;;;;9.17;8.03;;;;;;;10.31;100.00;98099.56;4995647;28;20945;-68
2021/09/20 03:39:23;;;;;;;8.07;7.47;;;;;;;10.24;100.00;98090.59;5000237;28;20658;-70
2021/09/20 03:41:52;;;;;;;8.20;7.43;;;;;;;10.21;100.00;98085.63;5004924;28;20214;-68
2021/09/20 03:44:20;;;;;;;9.03;8.17;;;;;;;10.32;100.00;98095.94;4991433;28;20226;-70
2021/09/20 03:46:48;;;;;;;9.00;8.10;;;;;;;10.51;100.00;98092.22;5000669;28;20232;-68
2021/09/20 03:49:16;;;;;;;8.27;7.57;;;;;;;10.54;100.00;98088.44;4965967;28;20583;-69
2021/09/20 03:51:44;;;;;;;7.90;7.20;;;;;;;10.38;100.00;98089.97;4991179;28;20211;-70
2021/09/20 03:54:12;;;;;;;7.90;7.20;;;;;;;10.36;100.00;98091.16;4992822;28;20200;-70
2021/09/20 03:56:40;;;;;;;8.33;7.63;;;;;;;10.24;100.00;98087.94;4999433;28;20209;-68
2021/09/20 03:59:09;;;;;;;7.20;6.60;;;;;;;10.20;100.00;98087.44;4993079;28;20434;-70
2021/09/20 04:01:37;;;;;;;8.77;7.80;;;;;;;10.18;100.00;98091.25;5001226;28;20412;-68
2021/09/20 04:04:05;;;;;;;8.60;7.50;;;;;;;10.14;100.00;98099.50;4951843;28;20385;-69
2021/09/20 04:06:34;;;;;;;7.93;7.20;;;;;;;10.19;100.00;98096.38;4997932;28;20291;-69
2021/09/20 04:09:02;;;;;;;8.73;7.97;;;;;;;10.18;100.00;98101.84;4991460;28;20251;-68
2021/09/20 04:11:31;;;;;;;10.87;7.90;;;;;;;10.49;100.00;98112.75;4981796;28;20347;-69
2021/09/20 04:13:59;;;;;;;9.47;8.43;;;;;;;10.29;100.00;98112.13;4999628;28;20212;-68
2021/09/20 04:16:28;;;;;;;7.90;7.17;;;;;;;10.35;100.00;98110.69;4993211;28;20425;-72
2021/09/20 04:18:56;;;;;;;8.57;7.77;;;;;;;10.56;100.00;98120.88;4999942;28;20232;-71
2021/09/20 04:21:24;;;;;;;8.40;7.37;;;;;;;10.25;100.00;98118.75;4996341;28;20208;-72
2021/09/20 04:23:52;;;;;;;8.47;7.53;;;;;;;10.59;100.00;98125.03;4985580;28;20706;-71
2021/09/20 04:26:20;;;;;;;7.97;7.30;;;;;;;10.46;100.00;98122.84;4961314;28;20735;-71
2021/09/20 04:28:48;;;;;;;8.30;7.50;;;;;;;10.66;100.00;98124.22;4995550;28;20224;-72
2021/09/20 04:31:16;;;;;;;8.53;7.73;;;;;;;10.39;100.00;98119.97;4994647;28;21030;-72
2021/09/20 04:33:45;;;;;;;8.50;7.80;;;;;;;10.27;100.00;98124.72;4993477;28;20312;-71
2021/09/20 04:36:13;;;;;;;7.10;6.50;;;;;;;10.24;100.00;98131.19;5005818;28;20204;-72
2021/09/20 04:38:41;;;;;;;8.13;7.33;;;;;;;10.16;100.00;98128.47;4988985;28;20241;-71
2021/09/20 04:41:09;;;;;;;8.23;7.53;;;;;;;10.11;100.00;98133.41;4955161;28;20232;-72
2021/09/20 04:43:37;;;;;;;8.30;7.27;;;;;;;10.20;100.00;98134.28;4995127;28;20427;-71
2021/09/20 04:46:05;;;;;;;7.30;6.70;;;;;;;10.22;100.00;98138.41;4987284;28;20215;-71
2021/09/20 04:48:34;;;;;;;9.00;8.13;;;;;;;10.27;100.00;98137.97;4982492;28;20430;-72
2021/09/20 04:51:03;;;;;;;9.27;8.43;;;;;;;10.21;100.00;98135.94;4999527;28;20225;-71
2021/09/20 04:53:31;;;;;;;8.83;8.03;;;;;;;10.36;100.00;98142.28;4983602;28;20723;-69
2021/09/20 04:55:59;;;;;;;8.30;7.70;;;;;;;10.20;100.00;98140.41;4968866;28;20224;-69
2021/09/20 04:58:27;;;;;;;9.07;8.17;;;;;;;10.18;100.00;98149.50;4993359;28;20889;-70
2021/09/20 05:00:55;;;;;;;8.53;7.83;;;;;;;10.16;100.00;98154.94;5001394;28;20200;-70
2021/09/20 05:03:24;;;;;;;7.70;7.00;;;;;;;10.11;100.00;98147.50;4983094;28;21000;-69
2021/09/20 05:05:53;;;;;;;8.73;8.03;;;;;;;10.27;100.00;98156.50;4999646;28;20299;-70
2021/09/20 05:08:22;;;;;;;9.43;8.57;;;;;;;10.35;100.00;98158.38;4987600;28;20247;-71
2021/09/20 05:10:50;;;;;;;8.27;7.47;;;;;;;10.34;100.00;98168.13;4996627;28;20555;-70
2021/09/20 05:13:18;;;;;;;9.47;8.57;;;;;;;10.20;100.00;98163.41;4948402;28;20440;-70
2021/09/20 05:15:46;;;;;;;8.87;8.07;;;;;;;10.36;100.00;98165.31;4996730;28;20216;-71
2021/09/20 05:18:14;;;;;;;9.13;7.27;;;;;;;10.44;100.00;98170.69;4993637;28;20294;-70
2021/09/20 05:20:42;;;;;;;7.87;7.27;;;;;;;10.61;100.00;98170.78;5002616;28;20201;-70
2021/09/20 05:23:10;;;;;;;8.03;7.33;;;;;;;10.61;100.00;98162.81;5004186;28;20696;-70
2021/09/20 05:25:39;;;;;;;8.30;7.60;;;;;;;10.45;100.00;98172.34;4990854;28;20583;-70
2021/09/20 05:28:08;;;;;;;7.93;7.23;;;;;;;10.38;100.00;98172.09;4977357;28;20834;-68
2021/09/20 05:30:36;;;;;;;8.27;7.43;;;;;;;10.31;100.00;98179.03;4997045;28;20240;-71
2021/09/20 05:33:04;;;;;;;8.33;7.63;;;;;;;10.43;100.00;98176.97;4997430;28;20677;-71
2021/09/20 05:35:32;;;;;;;7.97;7.30;;;;;;;10.29;100.00;98170.41;4998395;28;20806;-71
2021/09/20 05:38:00;;;;;;;9.03;8.13;;;;;;;10.31;100.00;98180.88;5000536;28;20225;-70
2021/09/20 05:40:28;;;;;;;9.67;8.77;;;;;;;10.26;100.00;98182.16;4982723;28;20295;-72
2021/09/20 05:42:59;;;;;;;7.70;7.10;;;;;;;10.27;100.00;98183.84;4967384;28;21887;-70
2021/09/20 05:45:27;;;;;;;9.07;8.27;;;;;;;10.23;100.00;98186.94;4994327;28;20565;-71
2021/09/20 05:47:55;;;;;;;8.53;7.83;;;;;;;10.30;100.00;98185.31;4995216;28;20228;-68
2021/09/20 05:50:25;;;;;;;8.10;7.30;;;;;;;10.30;100.00;98189.81;5000291;28;20212;-71
2021/09/20 05:52:54;;;;;;;7.87;7.17;;;;;;;10.35;100.00;98184.84;4999625;28;20870;-69
2021/09/20 05:55:22;;;;;;;8.30;7.07;;;;;;;10.21;100.00;98186.25;4990000;28;20220;-71
2021/09/20 05:57:50;;;;;;;9.17;8.27;;;;;;;10.42;100.00;98175.31;4996016;28;20399;-67
2021/09/20 06:00:20;;;;;;;8.07;7.37;;;;;;;10.34;100.00;98184.00;4961830;28;20620;-70
2021/09/20 06:02:48;;;;;;;7.53;6.90;;;;;;;10.39;100.00;98184.38;4987837;28;20550;-69
2021/09/20 06:05:16;;;;;;;8.80;7.27;;;;;;;10.46;100.00;98195.19;4987779;28;20219;-71
2021/09/20 06:07:44;;;;;;;7.37;6.67;;;;;;;10.62;100.00;98199.75;4997860;28;20209;-69
2021/09/20 06:10:14;;;;;;;8.30;7.53;;;;;;;10.48;100.00;98195.88;5001973;28;20361;-69
2021/09/20 06:12:42;;;;;;;10.23;6.70;;;;;;;10.48;100.00;98200.34;4985104;28;20243;-69
2021/09/20 06:15:11;;;;;;;7.90;7.20;;;;;;;10.50;100.00;98203.69;4975249;28;20221;-69
2021/09/20 06:17:41;;;;;;;7.17;6.57;;;;;;;10.63;100.00;98209.34;4963746;28;20212;-70
2021/09/20 06:20:10;;;;;;;6.77;6.27;;;;;;;10.60;100.00;98209.69;4997221;28;20292;-68
2021/09/20 06:22:38;;;;;;;6.63;6.10;;;;;;;10.54;100.00;98205.00;4997501;28;20208;-71
2021/09/20 06:25:08;;;;;;;7.33;6.60;;;;;;;10.41;100.00;98214.22;4983443;28;20200;-72
2021/09/20 06:27:36;;;;;;;6.97;6.37;;;;;;;10.37;100.00;98212.84;4991928;28;20233;-71
2021/09/20 06:30:05;;;;;;;7.37;6.77;;;;;;;10.37;100.00;98212.00;4985136;28;20937;-71
2021/09/20 06:32:33;;;;;;;7.03;6.43;;;;;;;10.48;100.00;98225.00;4968759;28;20247;-71
2021/09/20 06:35:04;;;;;;;7.50;6.90;;;;;;;10.41;100.00;98216.03;4991992;28;20208;-70
2021/09/20 06:37:32;;;;;;;7.33;6.63;;;;;;;10.45;100.00;98208.63;4994721;28;20673;-69
2021/09/20 06:40:00;;;;;;;7.37;6.70;;;;;;;10.41;100.00;98221.34;4998141;28;20283;-69
2021/09/20 06:42:28;;;;;;;6.60;6.00;;;;;;;10.44;100.00;98218.38;5001315;28;20335;-73
2021/09/20 06:44:56;;;;;;;7.30;6.70;;;;;;;10.54;100.00;98215.63;4982226;28;20196;-71
2021/09/20 06:47:24;;;;;;;6.83;6.20;;;;;;;10.44;100.00;98221.03;4972035;28;20223;-71
2021/09/20 06:49:52;;;;;;;7.40;6.70;;;;;;;10.58;100.00;98227.56;4997899;28;20995;-71
2021/09/20 06:52:21;;;;;;;6.13;5.73;;;;;;;10.57;100.00;98225.91;4995857;28;20374;-70
2021/09/20 06:54:49;;;;;;;5.97;5.47;;;;;;;10.59;100.00;98229.22;4997381;28;20204;-72
2021/09/20 06:57:17;;;;;;;6.90;6.30;;;;;;;10.62;100.00;98231.53;4998185;28;20582;-74
2021/09/20 06:59:45;;;;;;;6.93;6.33;;;;;;;10.49;100.00;98231.97;4998422;28;20224;-72
2021/09/20 07:02:13;;;;;;;6.63;6.13;;;;;;;10.45;100.00;98238.59;4987558;28;20861;-70
2021/09/20 07:04:41;;;;;;;6.63;6.10;;;;;;;10.45;100.00;98237.75;4969400;28;20228;-72
2021/09/20 07:07:12;;;;;;;6.77;6.23;;;;;;;10.63;100.00;98238.50;5002550;28;20223;-69
2021/09/20 07:09:42;;;;;;;5.80;5.40;;;;;;;10.59;100.00;98236.31;5003660;28;20231;-72
2021/09/20 07:12:10;;;;;;;6.83;6.27;;;;;;;10.49;100.00;98242.56;4998602;28;20227;-70
2021/09/20 07:14:38;;;;;;;7.20;6.63;;;;;;;10.48;100.00;98238.25;4998029;28;20221;-70
2021/09/20 07:17:06;;;;;;;6.27;5.67;;;;;;;10.54;100.00;98245.59;4987257;28;20300;-71
2021/09/20 07:19:50;;;;;;;7.70;5.97;;;;;;;10.64;100.00;98248.13;4965909;28;20323;-70
2021/09/20 07:22:17;;;;;;;6.13;5.63;;;;;;;10.56;100.00;98238.31;4997074;28;20193;-70
2021/09/20 07:24:47;;;;;;;5.90;5.47;;;;;;;10.65;100.00;98247.13;4996233;28;20201;-71
2021/09/20 07:27:15;;;;;;;6.23;5.73;;;;;;;10.76;100.00;98253.97;5001483;28;20203;-72
2021/09/20 07:29:43;;;;;;;6.63;6.07;;;;;;;10.62;100.00;98255.41;5000297;28;20327;-71
2021/09/20 07:32:12;;;;;;;6.37;5.87;;;;;;;10.74;100.00;98247.16;5003613;28;20226;-72
2021/09/20 07:34:40;;;;;;;6.17;5.57;;;;;;;11.02;100.00;98257.56;4964573;28;20209;-71
2021/09/20 07:37:08;;;;;;;6.37;5.77;;;;;;;10.71;100.00;98258.94;5009383;28;20439;-71
2021/09/20 07:39:36;;;;;;;5.83;5.37;;;;;;;10.66;100.00;98259.41;5006188;28;20252;-71
2021/09/20 07:42:06;;;;;;;5.83;5.40;;;;;;;10.67;100.00;98270.84;4993815;28;20194;-70
2021/09/20 07:44:34;;;;;;;6.57;6.07;;;;;;;10.91;100.00;98263.97;5007170;28;20200;-71
2021/09/20 07:47:03;;;;;;;5.50;5.10;;;;;;;10.99;100.00;98259.53;4997973;28;20280;-72
2021/09/20 07:49:32;;;;;;;6.23;5.33;;;;;;;11.02;100.00;98263.72;4971727;28;20285;-72
2021/09/20 07:52:00;;;;;;;6.53;5.93;;;;;;;10.85;100.00;98268.13;5007849;28;20235;-70
2021/09/20 07:54:28;;;;;;;5.53;5.13;;;;;;;11.12;100.00;98272.34;5001663;28;20205;-71
2021/09/20 07:56:56;;;;;;;6.17;5.67;;;;;;;10.95;100.00;98270.63;5004542;28;20204;-71
2021/09/20 07:59:26;;;;;;;5.63;5.20;;;;;;;10.95;100.00;98260.84;5012717;28;20227;-71
2021/09/20 08:01:53;;;;;;;5.57;5.17;;;;;;;11.06;100.00;98267.69;4998629;28;20220;-71
2021/09/20 08:04:22;;;;;;;6.37;5.87;;;;;;;11.31;100.00;98273.06;4990686;28;20209;-72
2021/09/20 08:06:50;;;;;;;5.50;5.10;;;;;;;11.17;100.00;98277.16;4976677;28;20205;-71
2021/09/20 08:09:18;;;;;;;5.77;5.30;;;;;;;11.04;100.00;98274.13;5009168;28;20236;-71
2021/09/20 08:11:46;;;;;;;5.97;5.40;;;;;;;11.05;100.00;98279.28;4999286;28;20979;-70
2021/09/20 08:14:14;;;;;;;7.00;6.30;;;;;;;11.04;100.00;98274.13;5006096;28;20215;-71
2021/09/20 08:16:43;;;;;;;5.43;5.03;;;;;;;11.03;100.00;98277.78;5001482;28;20216;-71
2021/09/20 08:19:11;;;;;;;5.87;5.10;;;;;;;11.16;100.00;98280.81;4989025;28;20259;-72
2021/09/20 08:21:39;;;;;;;5.73;5.33;;;;;;;11.05;100.00;98286.41;4979099;28;20217;-71
2021/09/20 08:24:07;;;;;;;5.37;4.90;;;;;;;11.10;100.00;98290.25;5012178;28;20197;-72
2021/09/20 08:26:35;;;;;;;6.13;5.43;;;;;;;11.21;100.00;98291.78;4971562;28;20209;-72
2021/09/20 08:29:04;;;;;;;6.97;6.33;;;;;;;11.25;100.00;98292.28;4993092;28;20231;-72
2021/09/20 08:31:32;;;;;;;6.80;6.30;;;;;;;11.40;100.00;98297.78;5004735;28;20224;-71
2021/09/20 08:34:02;;;;;;;7.07;5.00;;;;;;;11.44;100.00;98286.72;4995590;28;20224;-72
2021/09/20 08:36:30;;;;;;;4.77;4.47;;;;;;;11.53;100.00;98290.19;5008309;28;20209;-72
2021/09/20 08:38:58;;;;;;;5.23;4.83;;;;;;;11.53;100.00;98295.50;4999787;28;20235;-71
2021/09/20 08:41:26;;;;;;;4.80;4.50;;;;;;;11.64;100.00;98302.31;4972994;28;20565;-72
2021/09/20 08:43:54;;;;;;;5.90;5.33;;;;;;;11.66;100.00;98295.03;4996916;28;20208;-71
2021/09/20 08:46:23;;;;;;;5.20;4.80;;;;;;;11.78;100.00;98298.19;5007554;28;20799;-72
2021/09/20 08:48:56;;;;;;;6.10;5.50;;;;;;;11.86;100.00;98300.84;4971401;28;20228;-73
2021/09/20 08:51:25;;;;;;;5.83;5.43;;;;;;;11.97;100.00;98307.69;5008360;28;20204;-72
2021/09/20 08:53:53;;;;;;;4.93;4.63;;;;;;;11.92;100.00;98314.47;4981730;28;20469;-71
2021/09/20 08:56:21;;;;;;;5.33;4.93;;;;;;;11.96;100.00;98313.97;5000240;28;20227;-70
2021/09/20 08:58:49;;;;;;;5.37;4.97;;;;;;;12.11;100.00;98311.53;4961241;28;20236;-72
2021/09/20 09:01:17;;;;;;;6.27;5.00;;;;;;;12.06;100.00;98313.88;4979647;28;20443;-72
2021/09/20 09:03:45;;;;;;;6.30;5.73;;;;;;;12.23;100.00;98324.47;4998431;28;20244;-70
2021/09/20 09:06:16;;;;;;;5.63;5.23;;;;;;;12.31;100.00;98324.47;4991182;28;20223;-69
2021/09/20 09:08:47;;;;;;;5.33;4.83;;;;;;;12.41;100.00;98325.16;4993285;28;20245;-71
2021/09/20 09:11:15;;;;;;;7.20;5.37;;;;;;;12.61;100.00;98327.44;4993078;28;20419;-73
2021/09/20 09:13:46;;;;;;;4.80;4.47;;;;;;;12.69;100.00;98327.44;4972596;28;20681;-69
2021/09/20 09:16:16;;;;;;;5.57;5.07;;;;;;;12.69;100.00;98329.25;4999366;28;20577;-69
2021/09/20 09:19:05;;;;;;;4.97;4.53;;;;;;;13.08;100.00;98325.00;5009515;28;20247;-71
2021/09/20 09:21:37;;;;;;;5.20;4.80;;;;;;;13.16;100.00;98327.63;4989671;28;20493;-71
2021/09/20 09:24:17;;;;;;;7.40;4.93;;;;;;;13.10;100.00;98323.81;4967914;28;20626;-72
2021/09/20 09:26:54;;;;;;;5.00;4.60;;;;;;;12.98;100.00;98328.66;4995861;28;20235;-72
2021/09/20 09:29:23;;;;;;;5.60;5.10;;;;;;;12.99;100.00;98327.66;4963758;28;20221;-70
2021/09/20 09:31:54;;;;;;;4.93;4.57;;;;;;;13.17;100.00;98327.44;5003883;28;20205;-70
2021/09/20 09:34:24;;;;;;;4.93;4.53;;;;;;;13.25;100.00;98326.59;4999101;28;20362;-71
2021/09/20 09:36:53;;;;;;;5.30;4.67;;;;;;;13.39;100.00;98326.84;4989576;28;20497;-73
2021/09/20 09:39:29;;;;;;;5.20;4.80;;;;;;;13.37;100.00;98329.69;4982171;28;20703;-72
2021/09/20 09:41:58;;;;;;;4.53;4.17;;;;;;;13.44;100.00;98317.38;4997487;28;20217;-70
2021/09/20 09:44:28;;;;;;;12.43;6.13;;;;;;;13.52;100.00;98326.31;4967190;28;20212;-71
2021/09/20 09:46:57;;;;;;;4.77;4.23;;;;;;;13.72;100.00;98329.34;4996116;28;20219;-72
2021/09/20 09:49:26;;;;;;;4.70;4.33;;;;;;;13.73;100.00;98325.69;4996929;28;20239;-71
2021/09/20 09:51:56;;;;;;;4.87;4.57;;;;;;;13.96;100.00;98328.38;4997463;28;20209;-71
2021/09/20 09:54:30;;;;;;;4.70;4.30;;;;;;;14.15;100.00;98335.06;4972210;28;20243;-72
2021/09/20 09:57:18;;;;;;;4.47;4.20;;;;;;;14.25;100.00;98329.47;4996019;28;20211;-74
2021/09/20 09:59:55;;;;;;;4.60;4.20;;;;;;;14.24;100.00;98332.34;4963377;28;20229;-73
2021/09/20 10:02:26;;;;;;;4.07;3.77;;;;;;;14.25;99.94;98331.34;4994261;28;20821;-70
2021/09/20 10:04:57;;;;;;;4.67;4.27;;;;;;;14.69;95.39;98325.25;5000521;28;20678;-72
2021/09/20 10:07:27;;;;;;;4.53;4.23;;;;;;;14.81;92.92;98320.34;4988366;28;20550;-70
2021/09/20 10:09:57;;;;;;;4.63;4.30;;;;;;;14.62;91.37;98324.34;5005767;28;20240;-73
2021/09/20 10:12:27;;;;;;;4.83;4.40;;;;;;;14.84;88.75;98322.63;4985272;28;20212;-70
2021/09/20 10:14:56;;;;;;;4.70;4.30;;;;;;;14.73;93.58;98315.06;4970693;28;20807;-73
2021/09/20 10:17:26;;;;;;;4.73;4.37;;;;;;;14.53;89.02;98317.41;5001350;28;20213;-72
2021/09/20 10:19:54;;;;;;;4.83;4.30;;;;;;;14.59;90.44;98322.84;4995970;28;20233;-72
2021/09/20 10:22:22;;;;;;;4.13;3.83;;;;;;;14.82;87.41;98324.66;4990082;28;20217;-69
2021/09/20 10:24:52;;;;;;;4.97;4.57;;;;;;;14.80;91.50;98310.69;5005962;28;20198;-70
2021/09/20 10:27:23;;;;;;;4.17;3.87;;;;;;;14.88;87.24;98315.91;4983133;28;20327;-71
2021/09/20 10:29:54;;;;;;;3.90;3.60;;;;;;;14.63;84.89;98312.66;4965947;28;20236;-73
2021/09/20 10:32:22;;;;;;;4.07;3.77;;;;;;;14.79;86.98;98316.19;4997149;28;20319;-71
2021/09/20 10:34:50;;;;;;;4.20;3.90;;;;;;;15.02;80.65;98310.75;4999802;28;20224;-68
2021/09/20 10:37:24;;;;;;;4.30;4.00;;;;;;;15.00;82.46;98320.78;4961502;28;20259;-74
2021/09/20 10:39:55;;;;;;;4.10;3.80;;;;;;;15.26;79.07;98308.81;4997093;28;20228;-71
2021/09/20 10:42:56;;;;;;;3.80;3.50;;;;;;;15.66;71.91;98308.41;4997383;28;20523;-72
2021/09/20 10:45:45;;;;;;;3.77;3.53;;;;;;;15.48;69.71;98309.69;5000916;28;21588;-69
2021/09/20 10:48:25;;;;;;;3.77;3.47;;;;;;;15.37;77.03;98310.19;4994643;28;20251;-74
2021/09/20 10:50:55;;;;;;;4.33;3.93;;;;;;;15.27;78.36;98311.28;4999792;28;21149;-71
2021/09/20 10:53:28;;;;;;;5.03;3.77;;;;;;;15.43;70.13;98309.41;4945101;28;20225;-72
2021/09/20 10:56:24;;;;;;;3.70;3.50;;;;;;;15.68;71.28;98309.06;5001219;28;21121;-73
2021/09/20 10:59:18;;;;;;;3.90;3.70;;;;;;;15.48;74.85;98315.03;4962728;28;20229;-70
2021/09/20 11:01:59;;;;;;;4.20;3.87;;;;;;;15.81;71.86;98309.22;4984432;28;20719;-73
2021/09/20 11:04:30;;;;;;;4.30;4.00;;;;;;;15.65;76.50;98310.28;4999918;28;20696;-71
2021/09/20 11:07:21;;;;;;;3.90;3.50;;;;;;;15.50;77.09;98310.31;4985296;28;20275;-72
2021/09/20 11:10:02;;;;;;;4.13;3.93;;;;;;;15.69;74.63;98316.06;5001061;28;20239;-72
2021/09/20 11:12:31;;;;;;;4.50;4.10;;;;;;;15.55;75.03;98315.91;5002515;28;20673;-71
2021/09/20 11:15:13;;;;;;;5.13;4.13;;;;;;;15.62;74.75;98314.13;5000784;28;20366;-70
2021/09/20 11:17:46;;;;;;;4.07;3.77;;;;;;;15.46;69.39;98314.38;4981229;28;20475;-72
2021/09/20 11:20:25;;;;;;;3.90;3.60;;;;;;;15.42;69.55;98310.44;5008779;28;20692;-71
2021/09/20 11:23:14;;;;;;;4.17;3.87;;;;;;;15.34;71.76;98314.03;4964682;28;21436;-70
2021/09/20 11:25:46;;;;;;;4.37;4.07;;;;;;;15.68;69.66;98314.41;4997739;28;20200;-72
2021/09/20 11:28:14;;;;;;;4.23;3.83;;;;;;;15.67;72.46;98313.59;5005042;28;20240;-71
2021/09/20 11:30:44;;;;;;;4.23;3.83;;;;;;;16.15;68.13;98317.56;5006445;28;20255;-72
2021/09/20 11:33:12;;;;;;;4.63;4.33;;;;;;;16.48;64.62;98317.03;5003405;28;20222;-71
2021/09/20 11:35:40;;;;;;;4.23;3.93;;;;;;;16.28;70.61;98311.50;5003896;28;20232;-71
2021/09/20 11:38:12;;;;;;;5.70;3.83;;;;;;;16.38;71.75;98312.00;4964112;28;20771;-71